Time;durP1;ratioP1;P1;durP2;ratioP2;P2;SDS_P1;SDS_P2;PMS_P1;PMS_P2;Temp;Humidity;BMP_temperature;BMP_pressure;BME280_temperature;BME280_humidity;BME280_pressure;Samples;Min_cycle;Max_cycle;Signal;HPM_P1;HPM_P2
2022/05/12 00:00:16;;;;;;;4.45;4.05;;;;;;;20.77;59.22;99543.61;2907773;81;21065;-88
2022/05/12 00:04:19;;;;;;;6.22;3.83;;;;;;;20.73;59.24;99540.99;2912368;81;21007;-87
2022/05/12 00:08:20;;;;;;;5.25;4.25;;;;;;;20.68;59.32;99540.30;2857821;82;21023;-88
2022/05/12 00:12:23;;;;;;;4.30;3.40;;;;;;;20.60;59.48;99533.75;2934655;81;20968;-88
2022/05/12 00:16:24;;;;;;;4.75;4.05;;;;;;;20.55;59.49;99529.00;2935053;81;21046;-87
2022/05/12 00:20:26;;;;;;;5.40;3.45;;;;;;;20.54;59.38;99527.84;2920997;81;21435;-88
2022/05/12 00:24:27;;;;;;;5.75;4.22;;;;;;;20.51;59.43;99527.73;2858140;81;21012;-88
2022/05/12 00:28:28;;;;;;;4.42;3.60;;;;;;;20.48;59.54;99524.11;2919205;81;21027;-87
2022/05/12 00:32:29;;;;;;;5.15;3.62;;;;;;;20.45;59.50;99522.36;2855575;82;21392;-88
2022/05/12 00:36:31;;;;;;;6.67;4.03;;;;;;;20.47;59.37;99517.58;2902106;81;21051;-88
2022/05/12 00:40:33;;;;;;;8.18;4.22;;;;;;;20.41;59.43;99520.59;2899635;81;21006;-87
2022/05/12 00:44:34;;;;;;;4.45;3.75;;;;;;;20.38;59.63;99523.19;2864638;82;21089;-87
2022/05/12 00:48:35;;;;;;;6.47;4.17;;;;;;;20.29;60.00;99515.00;2947412;80;21041;-88
2022/05/12 00:52:36;;;;;;;4.85;4.25;;;;;;;20.24;60.07;99512.91;2903010;80;21041;-87
2022/05/12 00:56:39;;;;;;;5.62;3.30;;;;;;;20.15;60.60;99510.12;2954897;79;21041;-88
2022/05/12 01:00:41;;;;;;;6.10;4.47;;;;;;;20.04;60.98;99514.25;2947753;80;21441;-87
2022/05/12 01:04:43;;;;;;;5.83;4.45;;;;;;;19.91;61.46;99511.53;2915335;80;20971;-87
2022/05/12 01:08:46;;;;;;;5.05;3.83;;;;;;;19.80;61.71;99517.84;2932744;81;21023;-87
2022/05/12 01:12:49;;;;;;;5.62;4.22;;;;;;;19.67;62.16;99513.79;2909745;81;21556;-88
2022/05/12 01:17:00;;;;;;;4.10;3.33;;;;;;;19.64;62.42;99511.48;2910571;80;21027;-88
2022/05/12 01:21:01;;;;;;;3.65;3.33;;;;;;;19.59;62.55;99506.72;2874848;81;21003;-88
2022/05/12 01:25:12;;;;;;;5.70;3.50;;;;;;;19.60;62.81;99511.08;2932382;80;21023;-88
2022/05/12 01:29:14;;;;;;;4.05;3.65;;;;;;;19.59;62.93;99510.77;2946568;80;21046;-88
2022/05/12 01:33:15;;;;;;;5.72;3.98;;;;;;;19.55;63.30;99513.03;2904919;80;21686;-88
2022/05/12 01:37:16;;;;;;;3.98;3.58;;;;;;;19.53;63.48;99515.09;2901138;81;21023;-88
2022/05/12 01:41:18;;;;;;;14.28;4.53;;;;;;;19.50;63.86;99506.08;2910167;80;21534;-87
2022/05/12 01:45:21;;;;;;;5.03;4.47;;;;;;;19.49;63.86;99510.31;2905224;81;21016;-88
2022/05/12 01:49:23;;;;;;;3.35;3.05;;;;;;;19.48;64.03;99509.49;2900008;80;21077;-88
2022/05/12 01:53:24;;;;;;;5.30;3.77;;;;;;;19.47;64.28;99511.03;2959215;79;21037;-87
2022/05/12 01:57:25;;;;;;;5.22;3.83;;;;;;;19.45;64.51;99515.27;2958636;79;20995;-87
2022/05/12 02:01:26;;;;;;;6.03;3.58;;;;;;;19.44;64.69;99512.79;2878787;81;20960;-87
2022/05/12 02:05:33;;;;;;;6.53;3.60;;;;;;;19.42;64.68;99506.23;2853572;81;21161;-87
2022/05/12 02:09:35;;;;;;;7.58;4.20;;;;;;;19.42;64.60;99510.28;2900879;80;21584;-89
2022/05/12 02:13:36;;;;;;;5.22;3.65;;;;;;;19.42;64.64;99511.63;2900354;80;21050;-88
2022/05/12 02:17:38;;;;;;;6.55;4.05;;;;;;;19.41;64.81;99508.63;2901895;80;21456;-88
2022/05/12 02:21:39;;;;;;;6.85;3.70;;;;;;;19.41;64.63;99514.02;2901466;80;21026;-88
2022/05/12 02:25:40;;;;;;;5.22;2.98;;;;;;;19.44;64.46;99515.48;2900044;80;21046;-88
2022/05/12 02:29:42;;;;;;;4.58;3.50;;;;;;;19.52;63.98;99524.23;2848143;81;21617;-88
2022/05/12 02:33:43;;;;;;;4.15;3.70;;;;;;;19.63;63.39;99521.95;2898936;80;20999;-88
2022/05/12 02:37:44;;;;;;;58.78;11.68;;;;;;;19.78;62.96;99513.17;2921440;80;21402;-88
2022/05/12 02:41:45;;;;;;;3.67;3.15;;;;;;;19.91;62.62;99516.93;2852794;81;21074;-87
2022/05/12 02:45:46;;;;;;;10.58;4.15;;;;;;;20.02;62.12;99519.03;2875886;80;21010;-86
2022/05/12 02:49:48;;;;;;;5.12;3.98;;;;;;;20.18;61.63;99508.86;2925044;80;21014;-86
2022/05/12 02:53:49;;;;;;;4.92;4.00;;;;;;;20.32;61.24;99513.22;2908581;79;21316;-86
2022/05/12 02:57:50;;;;;;;4.10;3.33;;;;;;;20.41;61.10;99521.95;2937228;79;20988;-87
2022/05/12 03:01:51;;;;;;;8.95;3.90;;;;;;;20.47;60.65;99519.75;2938951;79;21007;-87
2022/05/12 03:05:54;;;;;;;4.95;3.65;;;;;;;20.56;60.36;99520.36;2925915;79;21046;-87
2022/05/12 03:09:55;;;;;;;4.30;3.72;;;;;;;20.63;60.05;99515.77;2933795;80;21096;-87
2022/05/12 03:13:56;;;;;;;4.67;3.50;;;;;;;20.67;59.62;99514.32;2925190;80;21047;-86
2022/05/12 03:17:59;;;;;;;8.63;3.85;;;;;;;20.72;59.84;99512.84;2887375;80;21006;-87
2022/05/12 03:22:00;;;;;;;9.00;3.72;;;;;;;20.67;60.15;99512.97;2786444;81;21012;-87
2022/05/12 03:26:01;;;;;;;7.37;3.77;;;;;;;20.55;60.85;99510.09;2879434;80;21094;-86
2022/05/12 03:30:07;;;;;;;4.78;3.50;;;;;;;20.44;61.21;99518.82;2951769;79;21023;-87
2022/05/12 03:34:08;;;;;;;3.98;3.50;;;;;;;20.35;61.48;99507.40;2906649;81;20963;-86
2022/05/12 03:38:09;;;;;;;4.87;3.45;;;;;;;20.30;61.69;99512.61;2900253;81;20985;-87
2022/05/12 03:42:12;;;;;;;4.72;3.90;;;;;;;20.24;62.18;99516.12;2911954;80;20991;-86
2022/05/12 03:46:13;;;;;;;6.72;4.22;;;;;;;20.23;62.33;99515.30;2901550;81;21026;-86
2022/05/12 03:50:19;;;;;;;4.75;4.12;;;;;;;20.18;62.58;99519.16;2926116;80;20956;-86
2022/05/12 03:54:20;;;;;;;4.90;3.72;;;;;;;20.16;62.87;99524.44;2922257;81;21126;-86
2022/05/12 03:58:21;;;;;;;3.15;2.90;;;;;;;20.19;63.61;99522.17;2901514;81;21062;-85
2022/05/12 04:02:23;;;;;;;3.92;3.52;;;;;;;20.30;63.36;99527.97;2922028;80;21030;-86
2022/05/12 04:06:24;;;;;;;26.10;8.05;;;;;;;20.41;62.84;99534.91;2924902;80;21055;-86
2022/05/12 04:10:26;;;;;;;7.67;3.83;;;;;;;20.46;62.48;99533.48;2901203;79;21038;-86
2022/05/12 04:14:27;;;;;;;4.00;3.65;;;;;;;20.49;62.56;99541.97;2925653;80;22240;-86
2022/05/12 04:18:29;;;;;;;11.28;5.33;;;;;;;20.54;62.33;99540.00;2909166;81;21023;-86
2022/05/12 04:22:30;;;;;;;6.08;2.80;;;;;;;20.55;62.51;99543.86;2900621;80;21093;-86
2022/05/12 04:26:37;;;;;;;3.40;3.10;;;;;;;20.92;62.72;99551.50;2921878;81;21065;-86
2022/05/12 04:30:39;;;;;;;7.33;3.87;;;;;;;21.92;62.03;99555.33;2916249;81;20976;-86
2022/05/12 04:38:59;;;;;;;10.20;3.85;;;;;;;23.10;56.22;99557.41;2905969;81;21592;-86
2022/05/12 04:43:00;;;;;;;2.92;2.30;;;;;;;23.18;55.45;99567.13;2911609;80;21047;-86
2022/05/12 04:47:02;;;;;;;7.15;3.22;;;;;;;23.13;54.50;99567.81;2901705;81;21023;-86
2022/05/12 04:51:03;;;;;;;8.28;2.85;;;;;;;23.21;54.54;99583.80;2913960;81;21082;-86
2022/05/12 04:55:05;;;;;;;3.72;3.00;;;;;;;23.32;54.60;99590.89;2935187;80;21058;-86
2022/05/12 04:59:09;;;;;;;5.28;2.60;;;;;;;23.33;54.49;99597.97;2877020;81;21011;-85
2022/05/12 05:03:11;;;;;;;9.85;4.25;;;;;;;23.67;53.55;99599.20;2916854;80;20983;-86
2022/05/12 05:07:12;;;;;;;3.02;2.72;;;;;;;23.64;53.20;99598.85;2928608;80;20959;-86
2022/05/12 05:11:13;;;;;;;10.32;3.17;;;;;;;23.54;53.40;99597.49;2922164;80;21432;-86
2022/05/12 05:15:15;;;;;;;4.10;2.92;;;;;;;23.54;53.92;99612.42;2923887;80;21550;-86
2022/05/12 05:19:16;;;;;;;6.75;2.27;;;;;;;23.70;54.71;99606.06;2899760;81;21066;-86
2022/05/12 05:23:21;;;;;;;5.00;2.95;;;;;;;24.41;54.57;99612.81;2939736;80;20978;-85
2022/05/12 05:27:21;;;;;;;4.03;3.02;;;;;;;25.30;53.21;99604.22;2926332;80;21071;-86
2022/05/12 05:31:23;;;;;;;5.55;2.83;;;;;;;26.01;52.07;99616.25;2903119;81;21073;-86
2022/05/12 05:35:24;;;;;;;4.28;2.83;;;;;;;26.64;49.61;99621.69;2841225;80;21042;-86
2022/05/12 05:39:27;;;;;;;4.12;2.37;;;;;;;27.26;49.35;99627.77;2927050;80;21368;-86
2022/05/12 05:43:29;;;;;;;24.25;5.33;;;;;;;27.65;48.31;99634.03;2902724;80;21074;-86
2022/05/12 05:47:30;;;;;;;7.00;3.10;;;;;;;27.86;46.92;99633.41;2932944;80;21050;-86
2022/05/12 05:55:53;;;;;;;5.28;3.17;;;;;;;28.20;46.76;99656.48;2904783;81;21038;-86
2022/05/12 05:59:59;;;;;;;4.27;2.87;;;;;;;28.36;46.75;99664.27;2928357;80;20991;-86
2022/05/12 06:04:00;;;;;;;3.90;2.50;;;;;;;28.38;46.55;99669.49;2926264;80;21711;-86
2022/05/12 06:08:02;;;;;;;4.33;2.70;;;;;;;27.99;45.68;99669.07;2926096;80;21020;-86
2022/05/12 06:12:04;;;;;;;6.42;3.17;;;;;;;27.68;46.64;99680.48;2922713;80;21014;-86
2022/05/12 06:16:05;;;;;;;6.92;2.90;;;;;;;27.69;46.00;99682.13;2926907;80;21066;-86
2022/05/12 06:20:12;;;;;;;6.72;3.27;;;;;;;27.71;46.24;99681.36;2921976;80;20999;-86
2022/05/12 06:24:13;;;;;;;8.05;3.37;;;;;;;27.47;47.21;99702.59;2921352;79;21010;-86
2022/05/12 06:28:14;;;;;;;10.43;2.40;;;;;;;27.25;46.92;99714.84;2928604;80;21014;-85
2022/05/12 06:32:17;;;;;;;5.95;2.70;;;;;;;26.53;47.68;99719.42;2871845;80;21002;-85
2022/05/12 06:36:19;;;;;;;5.22;2.47;;;;;;;26.48;48.24;99730.22;2925677;80;20986;-86
2022/05/12 06:40:21;;;;;;;4.85;2.27;;;;;;;26.46;49.43;99739.18;2924596;80;21016;-86
2022/05/12 06:44:22;;;;;;;6.10;3.12;;;;;;;26.18;49.97;99734.05;2915520;80;20991;-86
2022/05/12 06:48:25;;;;;;;13.72;3.15;;;;;;;25.63;49.04;99751.16;2902516;81;21103;-86
2022/05/12 06:52:26;;;;;;;10.50;3.77;;;;;;;25.62;50.44;99764.47;2906502;81;21094;-87
2022/05/12 06:56:28;;;;;;;15.70;3.62;;;;;;;25.51;48.80;99797.45;2880061;81;21586;-87
2022/05/12 07:00:29;;;;;;;4.87;3.55;;;;;;;25.56;50.74;99794.02;2907076;81;21059;-86
2022/05/12 07:04:31;;;;;;;8.70;5.12;;;;;;;25.58;52.69;99815.03;2876536;81;21073;-86
2022/05/12 07:08:32;;;;;;;4.08;3.72;;;;;;;25.46;53.49;99826.70;2908289;81;21018;-86
2022/05/12 07:12:33;;;;;;;5.62;3.98;;;;;;;25.34;54.72;99827.22;2912895;81;21011;-86
2022/05/12 07:16:35;;;;;;;12.88;5.08;;;;;;;25.34;55.86;99832.66;2903202;81;20999;-86
2022/05/12 07:29:21;;;;;;;10.45;4.55;;;;;;;24.98;55.51;99865.25;2911410;80;21030;-87
2022/05/12 07:33:23;;;;;;;8.18;4.60;;;;;;;24.31;55.45;99877.80;2929932;80;21094;-87
2022/05/12 07:37:25;;;;;;;20.90;7.20;;;;;;;24.18;57.58;99877.97;2901470;80;29484;-87
2022/05/12 07:41:27;;;;;;;8.18;3.25;;;;;;;24.33;57.28;99880.30;2925445;81;21050;-87
2022/05/12 07:45:28;;;;;;;8.73;4.30;;;;;;;24.45;56.71;99896.13;2915261;80;21000;-87
2022/05/12 07:49:35;;;;;;;7.95;3.50;;;;;;;24.51;56.24;99906.62;2886904;82;21047;-87
2022/05/12 07:53:37;;;;;;;4.75;3.20;;;;;;;24.60;56.67;99894.92;2949236;78;21002;-86
2022/05/12 07:57:38;;;;;;;5.87;3.35;;;;;;;24.83;55.77;99898.32;2947684;80;21042;-86
2022/05/12 08:01:39;;;;;;;16.45;5.70;;;;;;;24.84;55.15;99912.22;2947747;80;20932;-86
2022/05/12 08:05:40;;;;;;;7.85;2.80;;;;;;;24.66;56.89;99925.27;2948058;80;21030;-87
2022/05/12 08:09:41;;;;;;;5.40;2.62;;;;;;;24.67;55.99;99941.91;2924498;80;20982;-86
2022/05/12 08:13:46;;;;;;;6.05;2.55;;;;;;;24.68;55.19;99928.06;2947561;80;20956;-87
2022/05/12 08:17:45;;;;;;;8.75;4.33;;;;;;;24.59;55.40;99927.25;2946972;80;20947;-86
2022/05/12 08:21:47;;;;;;;12.25;4.12;;;;;;;24.62;55.11;99965.70;2923921;80;21069;-87
2022/05/12 08:25:50;;;;;;;2.15;1.90;;;;;;;23.96;55.26;99966.11;2947532;80;20979;-87
2022/05/12 08:29:53;;;;;;;4.95;2.62;;;;;;;23.81;57.43;99985.47;2922162;80;21030;-87
2022/05/12 08:33:54;;;;;;;7.80;3.22;;;;;;;23.46;57.28;99980.48;2947626;80;21492;-86
2022/05/12 08:37:55;;;;;;;9.85;3.08;;;;;;;23.64;56.19;99989.77;2923702;80;21002;-86
2022/05/12 08:42:21;;;;;;;5.08;2.05;;;;;;;23.90;55.76;99983.30;2947703;80;21438;-86
2022/05/12 08:46:37;;;;;;;5.83;1.40;;;;;;;23.76;56.11;100000.75;2880015;81;21004;-87
2022/05/12 08:50:40;;;;;;;3.85;1.40;;;;;;;23.32;55.81;100010.95;2935358;80;21015;-86
2022/05/12 08:54:58;;;;;;;5.65;2.40;;;;;;;23.19;56.74;100019.11;2913167;81;20987;-87
2022/05/12 08:59:00;;;;;;;6.78;1.10;;;;;;;23.23;56.32;100014.41;2895236;82;20968;-86
2022/05/12 09:03:30;;;;;;;22.42;3.87;;;;;;;23.12;55.62;100034.06;2891639;81;21000;-87
2022/05/12 09:07:49;;;;;;;2.22;0.80;;;;;;;23.23;55.54;100033.91;2907299;81;20979;-87
2022/05/12 09:11:56;;;;;;;3.52;1.05;;;;;;;22.99;55.90;100053.94;2907687;81;20987;-86
2022/05/12 09:16:24;;;;;;;5.05;1.62;;;;;;;23.03;55.86;100068.73;2913227;81;21035;-86
2022/05/12 09:20:30;;;;;;;6.25;1.85;;;;;;;23.43;55.87;100058.27;2906582;81;21007;-87
2022/05/12 09:24:31;;;;;;;9.13;2.95;;;;;;;23.93;55.46;100030.91;2912415;80;21069;-87
2022/05/12 09:28:36;;;;;;;21.82;3.98;;;;;;;24.16;54.65;100057.51;2886800;82;21023;-87
2022/05/12 09:32:39;;;;;;;10.87;2.03;;;;;;;24.36;52.54;100043.73;2924105;80;21062;-87
2022/05/12 09:36:41;;;;;;;3.20;1.20;;;;;;;24.58;53.21;100065.61;2948203;80;20979;-87
2022/05/12 09:40:42;;;;;;;19.52;4.50;;;;;;;24.76;53.89;100062.09;2898066;80;20984;-86
2022/05/12 09:45:03;;;;;;;10.00;2.22;;;;;;;24.74;51.66;100066.90;2948098;80;20987;-87
2022/05/12 09:49:21;;;;;;;3.35;1.30;;;;;;;24.36;52.76;100072.27;2947562;80;21035;-87
2022/05/12 09:53:30;;;;;;;4.30;1.40;;;;;;;23.36;51.80;100091.37;2947322;80;20975;-87
2022/05/12 09:57:31;;;;;;;5.87;1.00;;;;;;;22.58;52.40;100097.91;2947860;80;21003;-87
2022/05/12 10:01:34;;;;;;;12.40;1.98;;;;;;;22.76;52.06;100086.94;2906546;81;20999;-87
2022/05/12 10:10:03;;;;;;;9.20;0.90;;;;;;;23.28;51.13;100094.34;2906840;81;21059;-87
2022/05/12 10:14:06;;;;;;;5.72;1.35;;;;;;;23.66;51.24;100104.41;2906812;81;21046;-87
2022/05/12 10:18:38;;;;;;;2.50;1.12;;;;;;;23.76;50.94;100104.75;2909174;81;20976;-86
2022/05/12 10:22:52;;;;;;;6.95;1.55;;;;;;;23.40;51.16;100106.20;2845188;83;20969;-86
2022/05/12 10:27:05;;;;;;;5.22;1.47;;;;;;;23.16;50.19;100113.14;2845904;83;21035;-86
2022/05/12 10:31:31;;;;;;;3.70;1.65;;;;;;;23.17;51.34;100129.73;2845033;83;21033;-87
2022/05/12 10:35:49;;;;;;;7.78;2.22;;;;;;;22.89;50.83;100132.17;2845769;83;20974;-87
2022/05/12 10:40:02;;;;;;;5.17;1.57;;;;;;;23.07;51.48;100157.30;2845564;80;20994;-87
2022/05/12 10:44:21;;;;;;;13.35;1.62;;;;;;;23.43;50.40;100151.91;2812499;83;21029;-86
2022/05/12 10:48:47;;;;;;;6.55;1.65;;;;;;;23.52;47.19;100160.65;2862735;82;21049;-86
2022/05/12 10:53:29;;;;;;;8.25;1.27;;;;;;;23.52;47.58;100145.72;2897331;80;21061;-86
2022/05/12 10:57:57;;;;;;;6.22;1.75;;;;;;;23.54;47.25;100147.16;2914933;80;21165;-86
2022/05/12 11:02:08;;;;;;;5.35;1.30;;;;;;;23.55;46.91;100176.50;2901697;80;21019;-87
2022/05/12 11:06:14;;;;;;;10.68;1.52;;;;;;;23.41;45.43;100177.08;2896775;81;20991;-86
2022/05/12 11:10:54;;;;;;;4.53;1.55;;;;;;;23.35;44.87;100179.27;2913506;81;21026;-86
2022/05/12 11:15:12;;;;;;;13.85;2.30;;;;;;;23.50;44.40;100176.32;2895607;81;21755;-87
2022/05/12 11:19:20;;;;;;;10.82;1.00;;;;;;;23.53;43.33;100192.98;2832871;84;21114;-87
2022/05/12 11:23:33;;;;;;;13.60;2.05;;;;;;;23.52;43.50;100177.75;2923695;80;20989;-86
2022/05/12 11:32:47;;;;;;;3.77;1.60;;;;;;;23.42;41.60;100176.53;2810413;82;21075;-87
2022/05/12 11:36:53;;;;;;;9.23;1.52;;;;;;;23.54;42.93;100196.02;2819118;82;21074;-87
2022/05/12 11:40:55;;;;;;;7.42;1.45;;;;;;;23.55;41.71;100209.08;2739650;85;21061;-87
2022/05/12 11:45:08;;;;;;;2.65;1.32;;;;;;;23.53;40.68;100209.28;2739713;86;21101;-86
2022/05/12 11:49:40;;;;;;;3.50;1.12;;;;;;;23.43;40.55;100189.91;2764945;84;21018;-87
2022/05/12 11:54:07;;;;;;;9.03;1.35;;;;;;;23.49;39.27;100183.61;2764867;83;21030;-87
2022/05/12 11:58:12;;;;;;;7.70;1.37;;;;;;;23.44;39.83;100208.37;2850301;83;21005;-87
2022/05/12 12:02:38;;;;;;;1.50;0.50;;;;;;;23.49;42.41;100205.33;2841740;82;21043;-87
2022/05/12 12:06:52;;;;;;;4.83;0.78;;;;;;;23.56;40.91;100209.89;2919579;80;21074;-86
2022/05/12 12:11:14;;;;;;;11.08;0.55;;;;;;;23.62;40.61;100219.92;2916004;80;20987;-86
2022/05/12 12:15:30;;;;;;;3.40;0.57;;;;;;;23.64;39.11;100213.75;2911280;79;21011;-86
2022/05/12 12:19:52;;;;;;;14.10;1.15;;;;;;;23.57;37.95;100233.28;2910924;80;21157;-86
2022/05/12 12:24:05;;;;;;;3.47;0.82;;;;;;;23.61;38.09;100237.25;2903883;80;21102;-86
2022/05/12 12:28:29;;;;;;;2.08;0.57;;;;;;;23.66;37.14;100221.15;2887067;80;21566;-87
2022/05/12 12:32:35;;;;;;;11.65;1.90;;;;;;;23.91;39.79;100218.55;2914071;80;21022;-86
2022/05/12 12:36:51;;;;;;;4.40;0.78;;;;;;;24.17;40.09;100224.07;2992354;78;20996;-86
2022/05/12 12:40:53;;;;;;;3.30;0.30;;;;;;;24.39;38.83;100209.12;3018244;78;20951;-87
2022/05/12 12:45:05;;;;;;;3.55;0.40;;;;;;;24.31;36.67;100218.88;3017518;78;20998;-86
2022/05/12 12:49:32;;;;;;;2.80;0.78;;;;;;;24.11;37.72;100220.36;3019137;78;21033;-86
2022/05/12 12:57:55;;;;;;;7.35;1.37;;;;;;;24.20;39.31;100240.78;3020129;77;21018;-86
2022/05/12 13:02:00;;;;;;;0.93;0.30;;;;;;;24.13;37.50;100231.00;2990660;77;22297;-86
2022/05/12 13:06:10;;;;;;;;;;;;;;;24.42;40.01;100232.83;3006097;77;21030;-86
2022/05/12 13:10:18;;;;;;;3.25;0.60;;;;;;;24.40;39.12;100234.39;3004951;77;20127;-86
2022/05/12 13:14:21;;;;;;;2.80;0.75;;;;;;;24.42;39.12;100232.29;2995836;77;21029;-85
2022/05/12 13:18:36;;;;;;;7.00;1.00;;;;;;;24.39;40.23;100223.22;3002180;77;21311;-86
2022/05/12 13:22:52;;;;;;;12.07;2.62;;;;;;;24.28;38.41;100237.52;3021381;77;20994;-86
2022/05/12 13:27:00;;;;;;;2.50;0.42;;;;;;;24.36;38.72;100242.14;2991787;77;21532;-86
2022/05/12 13:31:24;;;;;;;6.17;1.32;;;;;;;24.36;39.49;100239.97;3008148;77;20967;-86
2022/05/12 13:35:29;;;;;;;0.68;0.20;;;;;;;24.45;39.46;100245.98;3027232;77;21006;-86
2022/05/12 13:39:52;;;;;;;2.03;0.57;;;;;;;24.47;39.55;100228.92;3026136;77;21148;-86
2022/05/12 13:43:51;;;;;;;3.85;0.72;;;;;;;24.58;42.53;100243.18;3005003;77;21030;-91
2022/05/12 13:47:55;;;;;;;2.05;1.05;;;;;;;24.54;39.30;100236.49;3006282;77;21041;-87
2022/05/12 13:52:01;;;;;;;2.65;0.40;;;;;;;24.43;40.19;100236.67;2992586;78;21039;-92
2022/05/12 13:56:07;;;;;;;27.45;3.95;;;;;;;24.51;39.29;100220.11;3017428;78;21122;-87
2022/05/12 14:00:18;;;;;;;3.75;0.50;;;;;;;24.53;38.92;100222.59;3026080;78;21010;-88
2022/05/12 14:04:23;;;;;;;1.05;0.25;;;;;;;24.45;38.43;100228.31;3020055;78;21015;-85
2022/05/12 14:08:33;;;;;;;1.32;0.55;;;;;;;24.55;39.00;100223.20;3010857;78;21017;-86
2022/05/12 14:12:35;;;;;;;3.45;0.62;;;;;;;24.66;37.84;100222.50;3012549;77;21101;-86
2022/05/12 14:20:59;;;;;;;1.60;0.37;;;;;;;24.84;39.78;100215.49;3004062;78;20998;-86
2022/05/12 14:25:00;;;;;;;0.57;0.40;;;;;;;24.86;40.66;100217.46;3012792;78;20947;-86
2022/05/12 14:29:02;;;;;;;1.32;0.28;;;;;;;24.67;38.80;100224.71;3012003;78;21001;-86
2022/05/12 14:33:04;;;;;;;3.47;0.50;;;;;;;24.71;39.53;100219.13;3018009;77;21037;-87
2022/05/12 14:37:06;;;;;;;0.30;0.20;;;;;;;24.70;40.54;100222.06;3029636;77;21021;-87
2022/05/12 14:41:07;;;;;;;1.47;0.60;;;;;;;24.42;38.87;100220.59;3002439;78;20991;-86
2022/05/12 14:45:09;;;;;;;6.37;0.85;;;;;;;24.31;39.20;100215.34;3007250;78;21072;-87
2022/05/12 14:49:16;;;;;;;1.95;0.50;;;;;;;24.35;39.75;100217.38;3032481;77;20928;-86
2022/05/12 14:53:17;;;;;;;2.42;0.45;;;;;;;24.36;38.91;100208.17;2993136;77;20944;-87
2022/05/12 14:57:21;;;;;;;3.52;1.20;;;;;;;24.50;40.09;100212.16;2921102;78;21025;-86
2022/05/12 15:01:24;;;;;;;1.77;0.25;;;;;;;24.32;39.70;100218.36;3024165;78;20979;-86
2022/05/12 15:05:28;;;;;;;0.82;0.35;;;;;;;24.37;41.64;100218.53;3030822;78;21037;-86
2022/05/12 15:09:30;;;;;;;0.95;0.30;;;;;;;24.44;38.20;100220.66;3031415;76;20934;-86
2022/05/12 15:13:31;;;;;;;1.02;0.30;;;;;;;24.37;40.42;100210.37;3022032;77;20967;-86
2022/05/12 15:17:35;;;;;;;2.05;0.90;;;;;;;24.44;41.00;100217.13;2993676;78;20991;-86
2022/05/12 15:21:36;;;;;;;4.47;0.53;;;;;;;24.40;38.85;100212.65;3032655;78;21011;-86
2022/05/12 15:25:38;;;;;;;1.75;0.50;;;;;;;24.50;39.62;100218.96;3032174;77;21053;-86
2022/05/12 15:29:45;;;;;;;0.82;0.40;;;;;;;24.64;38.55;100208.81;3013787;77;20983;-86
2022/05/12 15:33:42;;;;;;;2.40;0.50;;;;;;;24.73;38.94;100202.58;3023930;77;21059;-86
2022/05/12 15:37:44;;;;;;;2.37;0.30;;;;;;;24.55;38.27;100208.25;3031345;77;20997;-85
2022/05/12 15:41:50;;;;;;;0.40;0.25;;;;;;;24.38;38.03;100209.32;3031294;78;20998;-86
2022/05/12 15:45:51;;;;;;;2.72;0.47;;;;;;;24.45;41.06;100212.00;3028236;78;21019;-86
2022/05/12 15:49:53;;;;;;;0.95;0.45;;;;;;;24.34;40.20;100206.20;3012001;78;21026;-86
2022/05/12 15:53:54;;;;;;;7.17;1.65;;;;;;;24.18;38.57;100205.39;3017299;78;20958;-85
2022/05/12 15:57:55;;;;;;;2.90;0.90;;;;;;;24.02;39.54;100195.33;3018692;77;21046;-86
2022/05/12 16:01:57;;;;;;;4.33;0.50;;;;;;;24.19;39.44;100201.08;3017129;78;21070;-85
2022/05/12 16:06:00;;;;;;;1.95;0.98;;;;;;;24.22;39.53;100197.09;3017188;78;21018;-87
2022/05/12 16:10:01;;;;;;;4.70;1.25;;;;;;;24.15;39.79;100201.72;2992567;77;21007;-85
2022/05/12 16:14:02;;;;;;;17.87;3.12;;;;;;;24.04;41.13;100201.38;3016046;78;21026;-86
2022/05/12 16:18:04;;;;;;;1.02;0.37;;;;;;;23.92;41.18;100203.91;3018976;77;21009;-86
2022/05/12 16:22:05;;;;;;;2.17;1.12;;;;;;;23.84;39.32;100194.64;2988225;78;21081;-86
2022/05/12 16:26:10;;;;;;;1.37;0.30;;;;;;;23.73;40.68;100200.23;2994535;78;20967;-86
2022/05/12 16:30:16;;;;;;;0.80;0.50;;;;;;;23.71;39.24;100193.36;3017800;78;21026;-86
2022/05/12 16:34:18;;;;;;;4.37;1.25;;;;;;;23.52;38.73;100193.22;3017057;77;21037;-86
2022/05/12 16:38:19;;;;;;;2.60;1.82;;;;;;;23.27;40.29;100191.18;3000365;78;21518;-86
2022/05/12 16:42:24;;;;;;;3.17;1.95;;;;;;;23.29;40.25;100193.70;3007687;77;20993;-87
2022/05/12 16:46:24;;;;;;;1.65;1.10;;;;;;;23.22;39.89;100198.59;3012251;78;21511;-86
2022/05/12 16:50:25;;;;;;;2.08;1.05;;;;;;;23.21;41.24;100202.35;3018782;78;21248;-86
2022/05/12 16:54:27;;;;;;;8.45;1.32;;;;;;;23.15;41.34;100198.29;3019047;78;20993;-86
2022/05/12 16:58:29;;;;;;;3.00;1.30;;;;;;;23.03;41.53;100200.81;3012932;78;20979;-86
2022/05/12 17:02:31;;;;;;;1.07;0.53;;;;;;;22.92;41.84;100197.68;2998445;78;21044;-86
2022/05/12 17:06:33;;;;;;;1.20;0.68;;;;;;;22.66;42.72;100203.43;3018795;78;21022;-86
2022/05/12 17:10:37;;;;;;;12.93;1.95;;;;;;;22.38;43.51;100202.22;3013292;78;21052;-87
2022/05/12 17:14:38;;;;;;;2.55;0.65;;;;;;;22.13;44.88;100201.45;3006210;77;21007;-90
2022/05/12 17:18:41;;;;;;;0.30;0.30;;;;;;;22.01;45.35;100205.27;3021003;77;21510;-88
2022/05/12 17:22:42;;;;;;;1.25;1.00;;;;;;;22.01;45.82;100209.34;3017057;76;21006;-89
2022/05/12 17:26:43;;;;;;;1.32;0.82;;;;;;;21.96;45.92;100199.11;2981634;77;21751;-92
2022/05/12 17:30:44;;;;;;;6.97;1.72;;;;;;;21.83;46.32;100203.96;2999507;77;21613;-91
2022/05/12 17:34:45;;;;;;;15.28;3.90;;;;;;;21.67;47.81;100202.41;3006741;77;21011;-89
2022/05/12 17:38:47;;;;;;;17.67;2.08;;;;;;;21.36;48.48;100205.55;2989340;77;20999;-88
2022/05/12 17:42:50;;;;;;;2.67;1.20;;;;;;;21.06;48.63;100203.09;3006459;77;20990;-87
2022/05/12 17:46:51;;;;;;;3.22;2.02;;;;;;;20.80;49.09;100199.13;3019010;77;21384;-84
2022/05/12 17:50:52;;;;;;;4.55;1.35;;;;;;;20.73;49.26;100204.98;3003378;78;20991;-84
2022/05/12 17:54:53;;;;;;;22.27;5.03;;;;;;;20.74;49.98;100208.84;3023578;77;20991;-85
2022/05/12 17:58:55;;;;;;;20.55;4.42;;;;;;;20.68;50.45;100211.81;2971843;78;21006;-84
2022/05/12 18:02:58;;;;;;;15.00;3.95;;;;;;;20.62;51.42;100211.21;2939804;80;21010;-85
2022/05/12 18:06:59;;;;;;;9.40;1.45;;;;;;;20.57;50.46;100216.37;2909067;81;20948;-85
2022/05/12 18:11:00;;;;;;;2.92;0.90;;;;;;;20.51;49.79;100215.27;2897784;81;21101;-85
2022/05/12 18:15:01;;;;;;;2.52;1.10;;;;;;;20.39;49.82;100216.30;2927679;80;21043;-86
2022/05/12 18:19:03;;;;;;;3.67;2.08;;;;;;;20.24;49.05;100223.62;2911358;80;20972;-86
2022/05/12 18:23:05;;;;;;;4.05;2.72;;;;;;;20.17;50.55;100222.72;2929474;80;21059;-86
2022/05/12 18:27:06;;;;;;;3.10;1.70;;;;;;;20.04;50.16;100235.03;2942511;80;21003;-85
2022/05/12 18:31:09;;;;;;;8.50;1.90;;;;;;;19.80;49.99;100233.48;2929969;80;21105;-85
2022/05/12 18:35:12;;;;;;;4.12;1.75;;;;;;;19.72;49.46;100233.06;2935272;80;21066;-85
2022/05/12 18:39:13;;;;;;;3.85;1.65;;;;;;;19.69;50.74;100241.01;2904972;80;21059;-84
2022/05/12 18:43:18;;;;;;;6.67;1.77;;;;;;;19.61;51.97;100254.61;2935473;80;21065;-85
2022/05/12 18:47:21;;;;;;;6.75;1.60;;;;;;;19.52;54.00;100259.26;2903137;80;21672;-85
2022/05/12 18:51:22;;;;;;;6.28;2.85;;;;;;;19.39;54.54;100259.91;2884876;81;21057;-85
2022/05/12 18:55:24;;;;;;;4.12;1.22;;;;;;;19.20;53.99;100267.18;2885448;81;21125;-85
2022/05/12 18:59:25;;;;;;;2.70;1.60;;;;;;;19.01;54.79;100269.37;2871055;81;20950;-87
2022/05/12 19:03:26;;;;;;;10.63;3.25;;;;;;;18.91;55.52;100266.89;2903858;81;21075;-85
2022/05/12 19:07:27;;;;;;;7.97;3.47;;;;;;;18.84;56.39;100274.86;2891582;81;21000;-85
2022/05/12 19:11:29;;;;;;;8.65;3.05;;;;;;;18.76;55.60;100274.08;2896649;81;21011;-83
2022/05/12 19:15:32;;;;;;;3.90;2.50;;;;;;;18.74;55.71;100284.20;2884322;80;21070;-85
2022/05/12 19:19:33;;;;;;;5.30;2.25;;;;;;;18.70;55.94;100284.56;2883942;81;21040;-85
2022/05/12 19:23:34;;;;;;;2.37;1.57;;;;;;;18.65;56.05;100291.50;2889905;81;21062;-85
2022/05/12 19:27:36;;;;;;;4.33;2.08;;;;;;;18.55;55.93;100296.59;2835889;80;21053;-85
2022/05/12 19:31:37;;;;;;;1.75;1.17;;;;;;;18.46;55.87;100300.86;2892996;81;21061;-84
2022/05/12 19:35:39;;;;;;;3.10;1.17;;;;;;;18.31;55.96;100298.95;2947634;80;21006;-84